sensor_id;sensor_type;location;lat;lon;timestamp;P1;durP1;ratioP1;P2;durP2;ratioP2
44434;SDS011;30138;20.964;105.830;2024-01-10T00:02:42;88.13;;;50.63;;
44434;SDS011;30138;20.964;105.830;2024-01-10T00:07:51;87.30;;;51.50;;
44434;SDS011;30138;20.964;105.830;2024-01-10T00:12:58;93.63;;;53.10;;
44434;SDS011;30138;20.964;105.830;2024-01-10T00:18:05;93.85;;;55.10;;
44434;SDS011;30138;20.964;105.830;2024-01-10T00:23:13;105.10;;;57.67;;
44434;SDS011;30138;20.964;105.830;2024-01-10T00:28:20;102.93;;;57.75;;
44434;SDS011;30138;20.964;105.830;2024-01-10T00:33:28;97.63;;;57.25;;
44434;SDS011;30138;20.964;105.830;2024-01-10T00:38:37;103.00;;;59.03;;
44434;SDS011;30138;20.964;105.830;2024-01-10T00:43:44;100.78;;;59.15;;
44434;SDS011;30138;20.964;105.830;2024-01-10T00:48:51;113.35;;;62.00;;
44434;SDS011;30138;20.964;105.830;2024-01-10T00:54:00;106.38;;;61.58;;
44434;SDS011;30138;20.964;105.830;2024-01-10T00:59:06;101.88;;;59.22;;
44434;SDS011;30138;20.964;105.830;2024-01-10T01:04:13;107.10;;;61.58;;
44434;SDS011;30138;20.964;105.830;2024-01-10T01:09:22;106.97;;;61.40;;
44434;SDS011;30138;20.964;105.830;2024-01-10T01:14:29;105.78;;;60.65;;
44434;SDS011;30138;20.964;105.830;2024-01-10T01:19:37;101.72;;;58.05;;
44434;SDS011;30138;20.964;105.830;2024-01-10T01:24:45;107.95;;;61.90;;
44434;SDS011;30138;20.964;105.830;2024-01-10T01:29:52;105.28;;;61.15;;
44434;SDS011;30138;20.964;105.830;2024-01-10T01:35:01;105.13;;;61.47;;
44434;SDS011;30138;20.964;105.830;2024-01-10T01:40:10;100.05;;;60.10;;
44434;SDS011;30138;20.964;105.830;2024-01-10T01:45:17;100.43;;;58.63;;
44434;SDS011;30138;20.964;105.830;2024-01-10T01:50:23;100.75;;;60.88;;
44434;SDS011;30138;20.964;105.830;2024-01-10T01:55:31;100.90;;;60.85;;
44434;SDS011;30138;20.964;105.830;2024-01-10T02:00:39;99.82;;;59.50;;
44434;SDS011;30138;20.964;105.830;2024-01-10T02:05:47;104.97;;;59.45;;
44434;SDS011;30138;20.964;105.830;2024-01-10T02:10:56;96.78;;;58.40;;
44434;SDS011;30138;20.964;105.830;2024-01-10T02:16:03;98.13;;;58.10;;
44434;SDS011;30138;20.964;105.830;2024-01-10T02:21:10;92.20;;;56.20;;
44434;SDS011;30138;20.964;105.830;2024-01-10T02:26:19;96.90;;;56.97;;
44434;SDS011;30138;20.964;105.830;2024-01-10T02:31:25;89.07;;;56.83;;
44434;SDS011;30138;20.964;105.830;2024-01-10T02:36:33;90.70;;;55.63;;
44434;SDS011;30138;20.964;105.830;2024-01-10T02:41:42;85.85;;;53.75;;
44434;SDS011;30138;20.964;105.830;2024-01-10T02:46:49;91.45;;;54.80;;
44434;SDS011;30138;20.964;105.830;2024-01-10T02:51:56;85.93;;;55.10;;
44434;SDS011;30138;20.964;105.830;2024-01-10T02:57:05;84.72;;;53.90;;
44434;SDS011;30138;20.964;105.830;2024-01-10T03:02:12;81.57;;;52.80;;
44434;SDS011;30138;20.964;105.830;2024-01-10T03:07:19;76.43;;;50.08;;
44434;SDS011;30138;20.964;105.830;2024-01-10T03:12:29;76.25;;;49.25;;
44434;SDS011;30138;20.964;105.830;2024-01-10T03:22:43;67.20;;;44.10;;
44434;SDS011;30138;20.964;105.830;2024-01-10T03:27:53;67.47;;;44.25;;
44434;SDS011;30138;20.964;105.830;2024-01-10T03:33:01;68.63;;;43.70;;
44434;SDS011;30138;20.964;105.830;2024-01-10T03:38:07;62.05;;;41.45;;
44434;SDS011;30138;20.964;105.830;2024-01-10T03:43:16;58.47;;;39.75;;
44434;SDS011;30138;20.964;105.830;2024-01-10T03:48:23;57.70;;;39.03;;
44434;SDS011;30138;20.964;105.830;2024-01-10T03:53:30;53.85;;;36.80;;
44434;SDS011;30138;20.964;105.830;2024-01-10T03:58:38;52.72;;;35.70;;
44434;SDS011;30138;20.964;105.830;2024-01-10T04:03:46;48.47;;;33.42;;
44434;SDS011;30138;20.964;105.830;2024-01-10T04:08:52;48.65;;;33.85;;
44434;SDS011;30138;20.964;105.830;2024-01-10T04:14:01;46.17;;;31.75;;
44434;SDS011;30138;20.964;105.830;2024-01-10T04:19:09;43.65;;;31.50;;
44434;SDS011;30138;20.964;105.830;2024-01-10T04:24:16;44.88;;;31.25;;
44434;SDS011;30138;20.964;105.830;2024-01-10T04:29:25;46.17;;;30.92;;
44434;SDS011;30138;20.964;105.830;2024-01-10T04:34:32;41.08;;;29.73;;
44434;SDS011;30138;20.964;105.830;2024-01-10T04:39:39;42.95;;;30.88;;
44434;SDS011;30138;20.964;105.830;2024-01-10T04:44:48;40.90;;;29.27;;
44434;SDS011;30138;20.964;105.830;2024-01-10T04:49:56;41.33;;;29.85;;
44434;SDS011;30138;20.964;105.830;2024-01-10T04:55:02;38.03;;;28.80;;
44434;SDS011;30138;20.964;105.830;2024-01-10T05:00:12;42.50;;;28.35;;
44434;SDS011;30138;20.964;105.830;2024-01-10T05:05:20;39.58;;;27.95;;
44434;SDS011;30138;20.964;105.830;2024-01-10T05:10:26;37.30;;;28.02;;
44434;SDS011;30138;20.964;105.830;2024-01-10T05:15:35;38.67;;;27.20;;
44434;SDS011;30138;20.964;105.830;2024-01-10T05:20:42;39.45;;;27.35;;
44434;SDS011;30138;20.964;105.830;2024-01-10T05:25:49;32.88;;;26.08;;
44434;SDS011;30138;20.964;105.830;2024-01-10T05:30:57;34.90;;;26.92;;
44434;SDS011;30138;20.964;105.830;2024-01-10T05:36:04;35.22;;;26.73;;
44434;SDS011;30138;20.964;105.830;2024-01-10T05:41:13;32.83;;;26.17;;
44434;SDS011;30138;20.964;105.830;2024-01-10T05:46:21;35.00;;;27.25;;
44434;SDS011;30138;20.964;105.830;2024-01-10T05:51:30;36.10;;;27.80;;
44434;SDS011;30138;20.964;105.830;2024-01-10T05:56:37;35.80;;;27.98;;
44434;SDS011;30138;20.964;105.830;2024-01-10T06:01:45;36.38;;;28.38;;
44434;SDS011;30138;20.964;105.830;2024-01-10T06:06:51;36.85;;;29.23;;
44434;SDS011;30138;20.964;105.830;2024-01-10T06:11:58;38.47;;;28.73;;
44434;SDS011;30138;20.964;105.830;2024-01-10T06:17:06;35.88;;;28.92;;
44434;SDS011;30138;20.964;105.830;2024-01-10T06:22:13;36.65;;;28.85;;
44434;SDS011;30138;20.964;105.830;2024-01-10T06:27:20;33.47;;;29.77;;
44434;SDS011;30138;20.964;105.830;2024-01-10T06:32:29;34.35;;;29.02;;
44434;SDS011;30138;20.964;105.830;2024-01-10T06:37:35;36.28;;;29.90;;
44434;SDS011;30138;20.964;105.830;2024-01-10T06:42:46;35.75;;;29.33;;
44434;SDS011;30138;20.964;105.830;2024-01-10T06:47:55;39.70;;;29.83;;
44434;SDS011;30138;20.964;105.830;2024-01-10T06:53:02;37.03;;;29.13;;
44434;SDS011;30138;20.964;105.830;2024-01-10T06:58:08;37.42;;;28.75;;
44434;SDS011;30138;20.964;105.830;2024-01-10T07:03:17;34.50;;;29.00;;
44434;SDS011;30138;20.964;105.830;2024-01-10T07:08:23;31.77;;;28.25;;
44434;SDS011;30138;20.964;105.830;2024-01-10T07:13:32;35.63;;;29.83;;
44434;SDS011;30138;20.964;105.830;2024-01-10T07:18:40;36.58;;;29.27;;
44434;SDS011;30138;20.964;105.830;2024-01-10T07:23:49;38.25;;;28.58;;
44434;SDS011;30138;20.964;105.830;2024-01-10T07:28:55;32.95;;;28.00;;
44434;SDS011;30138;20.964;105.830;2024-01-10T07:34:05;32.47;;;28.13;;
44434;SDS011;30138;20.964;105.830;2024-01-10T07:39:16;35.58;;;28.13;;
44434;SDS011;30138;20.964;105.830;2024-01-10T07:44:23;34.47;;;28.30;;
44434;SDS011;30138;20.964;105.830;2024-01-10T07:49:31;33.40;;;28.48;;
44434;SDS011;30138;20.964;105.830;2024-01-10T07:54:39;34.88;;;28.50;;
44434;SDS011;30138;20.964;105.830;2024-01-10T07:59:45;32.35;;;27.30;;
44434;SDS011;30138;20.964;105.830;2024-01-10T08:04:54;35.08;;;28.38;;
44434;SDS011;30138;20.964;105.830;2024-01-10T08:10:01;35.00;;;28.15;;
44434;SDS011;30138;20.964;105.830;2024-01-10T08:15:08;34.67;;;29.42;;
44434;SDS011;30138;20.964;105.830;2024-01-10T08:20:18;37.42;;;29.70;;
44434;SDS011;30138;20.964;105.830;2024-01-10T08:25:26;35.67;;;29.58;;
44434;SDS011;30138;20.964;105.830;2024-01-10T08:30:32;33.83;;;29.45;;
44434;SDS011;30138;20.964;105.830;2024-01-10T08:35:40;35.08;;;29.42;;
44434;SDS011;30138;20.964;105.830;2024-01-10T08:40:47;33.92;;;27.67;;
44434;SDS011;30138;20.964;105.830;2024-01-10T08:45:54;32.58;;;27.40;;
44434;SDS011;30138;20.964;105.830;2024-01-10T08:51:04;33.13;;;27.23;;
44434;SDS011;30138;20.964;105.830;2024-01-10T08:56:11;30.92;;;25.88;;
44434;SDS011;30138;20.964;105.830;2024-01-10T09:01:20;31.60;;;25.67;;
44434;SDS011;30138;20.964;105.830;2024-01-10T09:06:28;31.40;;;24.60;;
44434;SDS011;30138;20.964;105.830;2024-01-10T09:11:36;29.55;;;24.20;;
44434;SDS011;30138;20.964;105.830;2024-01-10T09:16:42;30.00;;;24.25;;
44434;SDS011;30138;20.964;105.830;2024-01-10T09:21:51;30.23;;;25.13;;
44434;SDS011;30138;20.964;105.830;2024-01-10T09:26:59;31.25;;;25.58;;
44434;SDS011;30138;20.964;105.830;2024-01-10T09:32:06;34.58;;;26.95;;
44434;SDS011;30138;20.964;105.830;2024-01-10T09:37:15;35.17;;;26.42;;
44434;SDS011;30138;20.964;105.830;2024-01-10T09:42:22;30.80;;;27.05;;
44434;SDS011;30138;20.964;105.830;2024-01-10T09:47:29;39.60;;;30.10;;
44434;SDS011;30138;20.964;105.830;2024-01-10T09:52:41;35.78;;;29.02;;
44434;SDS011;30138;20.964;105.830;2024-01-10T09:57:55;35.97;;;28.30;;
44434;SDS011;30138;20.964;105.830;2024-01-10T10:03:02;38.05;;;30.58;;
44434;SDS011;30138;20.964;105.830;2024-01-10T10:08:14;35.90;;;29.45;;
44434;SDS011;30138;20.964;105.830;2024-01-10T10:13:24;39.45;;;29.08;;
44434;SDS011;30138;20.964;105.830;2024-01-10T10:18:31;42.30;;;32.95;;
44434;SDS011;30138;20.964;105.830;2024-01-10T10:23:39;42.90;;;31.80;;
44434;SDS011;30138;20.964;105.830;2024-01-10T10:28:47;39.40;;;31.58;;
44434;SDS011;30138;20.964;105.830;2024-01-10T10:33:55;40.30;;;30.88;;
44434;SDS011;30138;20.964;105.830;2024-01-10T10:39:06;42.38;;;31.02;;
44434;SDS011;30138;20.964;105.830;2024-01-10T10:44:15;36.58;;;30.30;;
44434;SDS011;30138;20.964;105.830;2024-01-10T10:49:28;36.58;;;28.83;;
44434;SDS011;30138;20.964;105.830;2024-01-10T10:54:38;39.20;;;29.48;;
44434;SDS011;30138;20.964;105.830;2024-01-10T10:59:45;35.83;;;28.15;;
44434;SDS011;30138;20.964;105.830;2024-01-10T11:04:54;35.53;;;28.70;;
44434;SDS011;30138;20.964;105.830;2024-01-10T11:10:03;37.25;;;27.30;;
44434;SDS011;30138;20.964;105.830;2024-01-10T11:15:21;37.63;;;27.60;;
44434;SDS011;30138;20.964;105.830;2024-01-10T11:20:50;34.60;;;27.23;;
44434;SDS011;30138;20.964;105.830;2024-01-10T11:26:15;34.33;;;25.60;;
44434;SDS011;30138;20.964;105.830;2024-01-10T11:31:27;33.47;;;25.85;;
44434;SDS011;30138;20.964;105.830;2024-01-10T11:36:35;32.33;;;25.05;;
44434;SDS011;30138;20.964;105.830;2024-01-10T11:41:43;30.88;;;25.23;;
44434;SDS011;30138;20.964;105.830;2024-01-10T11:46:53;31.60;;;25.27;;
44434;SDS011;30138;20.964;105.830;2024-01-10T11:52:00;32.47;;;25.52;;
44434;SDS011;30138;20.964;105.830;2024-01-10T11:57:09;36.38;;;26.17;;
44434;SDS011;30138;20.964;105.830;2024-01-10T12:02:17;31.80;;;26.88;;
44434;SDS011;30138;20.964;105.830;2024-01-10T12:07:25;37.35;;;29.33;;
44434;SDS011;30138;20.964;105.830;2024-01-10T12:12:34;38.65;;;29.73;;
44434;SDS011;30138;20.964;105.830;2024-01-10T12:17:40;40.85;;;30.63;;
44434;SDS011;30138;20.964;105.830;2024-01-10T12:22:47;36.67;;;30.08;;
44434;SDS011;30138;20.964;105.830;2024-01-10T12:27:56;35.40;;;28.65;;
44434;SDS011;30138;20.964;105.830;2024-01-10T12:33:08;41.65;;;29.90;;
44434;SDS011;30138;20.964;105.830;2024-01-10T12:38:15;37.38;;;28.60;;
44434;SDS011;30138;20.964;105.830;2024-01-10T12:43:25;42.17;;;29.67;;
44434;SDS011;30138;20.964;105.830;2024-01-10T12:48:31;39.53;;;29.77;;
44434;SDS011;30138;20.964;105.830;2024-01-10T12:53:39;41.30;;;31.13;;
44434;SDS011;30138;20.964;105.830;2024-01-10T12:58:49;44.70;;;31.13;;
44434;SDS011;30138;20.964;105.830;2024-01-10T13:03:56;42.22;;;30.85;;
44434;SDS011;30138;20.964;105.830;2024-01-10T13:09:02;42.50;;;32.15;;
44434;SDS011;30138;20.964;105.830;2024-01-10T13:14:11;43.60;;;32.95;;
44434;SDS011;30138;20.964;105.830;2024-01-10T13:19:18;44.45;;;33.00;;
44434;SDS011;30138;20.964;105.830;2024-01-10T13:24:25;47.65;;;33.92;;
44434;SDS011;30138;20.964;105.830;2024-01-10T13:29:33;47.83;;;33.08;;
44434;SDS011;30138;20.964;105.830;2024-01-10T13:34:41;51.88;;;34.88;;
44434;SDS011;30138;20.964;105.830;2024-01-10T13:39:48;52.50;;;34.40;;
44434;SDS011;30138;20.964;105.830;2024-01-10T13:44:57;49.58;;;34.42;;
44434;SDS011;30138;20.964;105.830;2024-01-10T13:50:05;47.13;;;34.17;;
44434;SDS011;30138;20.964;105.830;2024-01-10T13:55:13;42.95;;;34.60;;
44434;SDS011;30138;20.964;105.830;2024-01-10T14:00:22;46.25;;;35.22;;
44434;SDS011;30138;20.964;105.830;2024-01-10T14:05:30;41.95;;;33.75;;
44434;SDS011;30138;20.964;105.830;2024-01-10T14:10:37;46.53;;;34.72;;
44434;SDS011;30138;20.964;105.830;2024-01-10T14:15:45;47.45;;;35.05;;
44434;SDS011;30138;20.964;105.830;2024-01-10T14:20:52;49.90;;;34.80;;
44434;SDS011;30138;20.964;105.830;2024-01-10T14:25:59;46.10;;;35.47;;
44434;SDS011;30138;20.964;105.830;2024-01-10T14:31:08;48.38;;;34.88;;
44434;SDS011;30138;20.964;105.830;2024-01-10T14:36:16;47.00;;;35.10;;
44434;SDS011;30138;20.964;105.830;2024-01-10T14:41:23;45.03;;;35.72;;
44434;SDS011;30138;20.964;105.830;2024-01-10T14:46:33;51.83;;;36.50;;
44434;SDS011;30138;20.964;105.830;2024-01-10T14:51:41;50.38;;;37.58;;
44434;SDS011;30138;20.964;105.830;2024-01-10T14:56:48;48.20;;;37.80;;
44434;SDS011;30138;20.964;105.830;2024-01-10T15:01:57;50.95;;;37.33;;
44434;SDS011;30138;20.964;105.830;2024-01-10T15:07:04;49.35;;;38.15;;
44434;SDS011;30138;20.964;105.830;2024-01-10T15:12:11;48.30;;;37.35;;
44434;SDS011;30138;20.964;105.830;2024-01-10T15:17:22;51.60;;;38.58;;
44434;SDS011;30138;20.964;105.830;2024-01-10T15:22:29;49.15;;;38.00;;
44434;SDS011;30138;20.964;105.830;2024-01-10T15:27:38;48.60;;;38.20;;
44434;SDS011;30138;20.964;105.830;2024-01-10T15:32:47;48.95;;;38.33;;
44434;SDS011;30138;20.964;105.830;2024-01-10T15:37:54;49.38;;;38.10;;
44434;SDS011;30138;20.964;105.830;2024-01-10T15:43:01;48.00;;;35.47;;
44434;SDS011;30138;20.964;105.830;2024-01-10T15:48:10;44.53;;;34.08;;
44434;SDS011;30138;20.964;105.830;2024-01-10T15:53:17;46.17;;;33.38;;
44434;SDS011;30138;20.964;105.830;2024-01-10T15:58:23;44.58;;;33.28;;
44434;SDS011;30138;20.964;105.830;2024-01-10T16:03:32;44.88;;;33.17;;
44434;SDS011;30138;20.964;105.830;2024-01-10T16:08:39;41.53;;;32.13;;
44434;SDS011;30138;20.964;105.830;2024-01-10T16:13:46;42.05;;;31.75;;
44434;SDS011;30138;20.964;105.830;2024-01-10T16:18:55;37.75;;;30.02;;
44434;SDS011;30138;20.964;105.830;2024-01-10T16:24:02;38.22;;;29.27;;
44434;SDS011;30138;20.964;105.830;2024-01-10T16:29:09;40.33;;;29.42;;
44434;SDS011;30138;20.964;105.830;2024-01-10T16:34:20;37.15;;;28.45;;
44434;SDS011;30138;20.964;105.830;2024-01-10T16:39:27;36.30;;;28.80;;
44434;SDS011;30138;20.964;105.830;2024-01-10T16:44:34;37.60;;;26.95;;
44434;SDS011;30138;20.964;105.830;2024-01-10T16:49:43;35.25;;;26.77;;
44434;SDS011;30138;20.964;105.830;2024-01-10T16:54:49;36.65;;;27.05;;
44434;SDS011;30138;20.964;105.830;2024-01-10T16:59:56;36.17;;;25.80;;
44434;SDS011;30138;20.964;105.830;2024-01-10T17:05:05;36.67;;;27.02;;
44434;SDS011;30138;20.964;105.830;2024-01-10T17:10:12;39.95;;;27.88;;
44434;SDS011;30138;20.964;105.830;2024-01-10T17:15:19;44.58;;;29.48;;
44434;SDS011;30138;20.964;105.830;2024-01-10T17:20:27;48.42;;;32.28;;
44434;SDS011;30138;20.964;105.830;2024-01-10T17:25:34;48.95;;;33.65;;
44434;SDS011;30138;20.964;105.830;2024-01-10T17:30:42;50.63;;;34.42;;
44434;SDS011;30138;20.964;105.830;2024-01-10T17:35:50;53.13;;;37.10;;
44434;SDS011;30138;20.964;105.830;2024-01-10T17:40:57;54.30;;;36.17;;
44434;SDS011;30138;20.964;105.830;2024-01-10T17:46:04;61.83;;;36.80;;
44434;SDS011;30138;20.964;105.830;2024-01-10T17:51:16;56.63;;;36.05;;
44434;SDS011;30138;20.964;105.830;2024-01-10T17:56:23;54.72;;;37.53;;
44434;SDS011;30138;20.964;105.830;2024-01-10T18:01:30;57.03;;;36.38;;
44434;SDS011;30138;20.964;105.830;2024-01-10T18:06:38;53.58;;;35.25;;
44434;SDS011;30138;20.964;105.830;2024-01-10T18:11:45;54.40;;;35.78;;
44434;SDS011;30138;20.964;105.830;2024-01-10T18:16:53;54.13;;;35.38;;
44434;SDS011;30138;20.964;105.830;2024-01-10T18:22:02;52.70;;;36.50;;
44434;SDS011;30138;20.964;105.830;2024-01-10T18:27:10;58.05;;;37.95;;
44434;SDS011;30138;20.964;105.830;2024-01-10T18:32:16;56.58;;;37.25;;
44434;SDS011;30138;20.964;105.830;2024-01-10T18:37:24;61.80;;;37.47;;
44434;SDS011;30138;20.964;105.830;2024-01-10T18:42:31;50.15;;;36.17;;
44434;SDS011;30138;20.964;105.830;2024-01-10T18:47:38;52.47;;;34.35;;
44434;SDS011;30138;20.964;105.830;2024-01-10T18:52:46;52.15;;;35.00;;
44434;SDS011;30138;20.964;105.830;2024-01-10T18:57:54;55.00;;;35.58;;
44434;SDS011;30138;20.964;105.830;2024-01-10T19:03:01;58.50;;;35.95;;
44434;SDS011;30138;20.964;105.830;2024-01-10T19:08:10;53.35;;;34.50;;
44434;SDS011;30138;20.964;105.830;2024-01-10T19:13:17;50.00;;;34.45;;
44434;SDS011;30138;20.964;105.830;2024-01-10T19:18:25;52.83;;;33.80;;
44434;SDS011;30138;20.964;105.830;2024-01-10T19:23:33;49.03;;;33.40;;
44434;SDS011;30138;20.964;105.830;2024-01-10T19:28:44;48.72;;;33.20;;
44434;SDS011;30138;20.964;105.830;2024-01-10T19:33:50;49.05;;;33.00;;
44434;SDS011;30138;20.964;105.830;2024-01-10T19:39:00;46.65;;;32.75;;
44434;SDS011;30138;20.964;105.830;2024-01-10T19:44:08;51.60;;;33.03;;
44434;SDS011;30138;20.964;105.830;2024-01-10T19:49:15;49.58;;;32.72;;
44434;SDS011;30138;20.964;105.830;2024-01-10T19:54:24;47.38;;;32.92;;
44434;SDS011;30138;20.964;105.830;2024-01-10T19:59:31;49.88;;;32.63;;
44434;SDS011;30138;20.964;105.830;2024-01-10T20:04:38;46.45;;;32.05;;
44434;SDS011;30138;20.964;105.830;2024-01-10T20:09:46;48.63;;;31.58;;
44434;SDS011;30138;20.964;105.830;2024-01-10T20:14:53;48.15;;;31.65;;
44434;SDS011;30138;20.964;105.830;2024-01-10T20:19:59;49.63;;;29.75;;
44434;SDS011;30138;20.964;105.830;2024-01-10T20:25:10;44.42;;;29.33;;
44434;SDS011;30138;20.964;105.830;2024-01-10T20:30:17;42.83;;;28.63;;
44434;SDS011;30138;20.964;105.830;2024-01-10T20:35:24;41.35;;;27.75;;
44434;SDS011;30138;20.964;105.830;2024-01-10T20:40:33;40.33;;;26.20;;
44434;SDS011;30138;20.964;105.830;2024-01-10T20:45:40;38.72;;;26.65;;
44434;SDS011;30138;20.964;105.830;2024-01-10T20:50:46;38.67;;;25.98;;
44434;SDS011;30138;20.964;105.830;2024-01-10T20:55:56;38.13;;;26.05;;
44434;SDS011;30138;20.964;105.830;2024-01-10T21:01:04;35.55;;;24.00;;
44434;SDS011;30138;20.964;105.830;2024-01-10T21:06:10;33.30;;;23.33;;
44434;SDS011;30138;20.964;105.830;2024-01-10T21:11:19;33.42;;;23.25;;
44434;SDS011;30138;20.964;105.830;2024-01-10T21:16:27;33.58;;;21.05;;
44434;SDS011;30138;20.964;105.830;2024-01-10T21:21:34;33.03;;;21.90;;
44434;SDS011;30138;20.964;105.830;2024-01-10T21:26:43;30.27;;;20.40;;
44434;SDS011;30138;20.964;105.830;2024-01-10T21:31:51;31.08;;;19.23;;
44434;SDS011;30138;20.964;105.830;2024-01-10T21:36:58;28.55;;;20.50;;
44434;SDS011;30138;20.964;105.830;2024-01-10T21:42:08;27.35;;;18.95;;
44434;SDS011;30138;20.964;105.830;2024-01-10T21:47:14;28.58;;;19.08;;
44434;SDS011;30138;20.964;105.830;2024-01-10T21:52:21;25.50;;;18.30;;
44434;SDS011;30138;20.964;105.830;2024-01-10T21:57:31;22.88;;;17.23;;
44434;SDS011;30138;20.964;105.830;2024-01-10T22:02:38;22.88;;;16.67;;
44434;SDS011;30138;20.964;105.830;2024-01-10T22:07:44;22.90;;;15.93;;
44434;SDS011;30138;20.964;105.830;2024-01-10T22:12:54;22.33;;;15.57;;
44434;SDS011;30138;20.964;105.830;2024-01-10T22:18:01;19.00;;;14.68;;
44434;SDS011;30138;20.964;105.830;2024-01-10T22:23:08;22.50;;;14.82;;
44434;SDS011;30138;20.964;105.830;2024-01-10T22:28:16;20.35;;;14.55;;
44434;SDS011;30138;20.964;105.830;2024-01-10T22:33:22;18.45;;;13.15;;
44434;SDS011;30138;20.964;105.830;2024-01-10T22:38:29;16.70;;;12.93;;
44434;SDS011;30138;20.964;105.830;2024-01-10T22:43:38;19.85;;;13.10;;
44434;SDS011;30138;20.964;105.830;2024-01-10T22:48:44;16.23;;;12.52;;
44434;SDS011;30138;20.964;105.830;2024-01-10T22:53:52;16.77;;;12.30;;
44434;SDS011;30138;20.964;105.830;2024-01-10T22:59:01;16.73;;;11.95;;
44434;SDS011;30138;20.964;105.830;2024-01-10T23:04:07;15.27;;;12.30;;
44434;SDS011;30138;20.964;105.830;2024-01-10T23:09:13;15.35;;;12.18;;
44434;SDS011;30138;20.964;105.830;2024-01-10T23:14:21;17.45;;;13.15;;
44434;SDS011;30138;20.964;105.830;2024-01-10T23:19:28;18.38;;;13.98;;
44434;SDS011;30138;20.964;105.830;2024-01-10T23:24:35;18.52;;;13.60;;
44434;SDS011;30138;20.964;105.830;2024-01-10T23:29:45;18.55;;;14.65;;
44434;SDS011;30138;20.964;105.830;2024-01-10T23:34:51;19.33;;;14.60;;
44434;SDS011;30138;20.964;105.830;2024-01-10T23:39:59;21.30;;;15.25;;
44434;SDS011;30138;20.964;105.830;2024-01-10T23:45:08;21.55;;;15.63;;
44434;SDS011;30138;20.964;105.830;2024-01-10T23:50:15;22.02;;;15.57;;
44434;SDS011;30138;20.964;105.830;2024-01-10T23:55:22;23.15;;;15.52;;
